Terminal Aerodrome Forecast
Issued by NWS

Current Version | Previous Version | Text Only | Print | Product List | Glossary On
Versions: 1 2 3 4 5 6 7 8 9 10 11 12 13 14 15 16 17 18 19 20 21 22
000
FTUS42 KGSP 051739
TAFGMU
TAF
KGMU 051739Z 0518/0618 31009KT P6SM -SHRA OVC010
     FM051900 35009KT 6SM -SHRA BR FEW006 OVC010
      TEMPO 0519/0522 BKN006
     FM052200 01010G19KT P6SM OVC015
     FM060100 02013G22KT P6SM OVC025
     FM060500 03011G19KT P6SM BKN045
     FM060900 03010KT P6SM SCT100=

USA.gov is the U.S. government's official web portal to all federal, state and local government web resources and services.